createdAt,value
2019-03-26T00:00:56.077Z,8.60
2019-03-26T00:01:56.105Z,8.80
2019-03-26T00:02:56.130Z,9.00
2019-03-26T00:04:05.721Z,10.40
2019-03-26T00:04:56.185Z,10.60
2019-03-26T00:05:56.212Z,7.90
2019-03-26T00:06:56.238Z,7.30
2019-03-26T00:07:56.267Z,6.90
2019-03-26T00:08:56.295Z,7.30
2019-03-26T00:09:56.326Z,7.70
2019-03-26T00:10:56.348Z,10.50
2019-03-26T00:11:56.375Z,9.20
2019-03-26T00:12:56.404Z,10.50
2019-03-26T00:13:57.804Z,7.30
2019-03-26T00:14:56.455Z,10.60
2019-03-26T00:15:56.483Z,11.20
2019-03-26T00:16:56.512Z,8.00
2019-03-26T00:17:56.540Z,7.00
2019-03-26T00:18:56.571Z,8.80
2019-03-26T00:19:56.591Z,8.20
2019-03-26T00:20:56.619Z,8.90
2019-03-26T00:21:56.646Z,12.60
2019-03-26T00:22:56.672Z,9.30
2019-03-26T00:23:56.699Z,10.60
2019-03-26T00:24:56.727Z,8.80
2019-03-26T00:25:56.755Z,9.60
2019-03-26T00:26:56.780Z,15.20
2019-03-26T00:27:56.808Z,14.40
2019-03-26T00:28:56.836Z,9.80
2019-03-26T00:29:56.863Z,9.40
2019-03-26T00:30:56.890Z,12.10
2019-03-26T00:31:56.918Z,14.50
2019-03-26T00:32:56.942Z,10.40
2019-03-26T00:33:56.970Z,12.70
2019-03-26T00:34:56.996Z,12.60
2019-03-26T00:35:57.025Z,13.20
2019-03-26T00:36:57.052Z,16.80
2019-03-26T00:37:57.077Z,11.90
2019-03-26T00:38:57.104Z,14.20
2019-03-26T00:39:57.132Z,12.20
2019-03-26T00:40:57.159Z,14.80
2019-03-26T00:41:57.185Z,9.20
2019-03-26T00:42:57.212Z,8.60
2019-03-26T00:43:57.241Z,10.90
2019-03-26T00:44:57.266Z,12.80
2019-03-26T00:45:57.295Z,9.90
2019-03-26T00:46:57.319Z,14.50
2019-03-26T00:47:57.345Z,11.30
2019-03-26T00:48:57.373Z,9.60
2019-03-26T00:49:57.402Z,13.70
2019-03-26T00:50:57.428Z,12.10
2019-03-26T00:51:57.454Z,11.00
2019-03-26T00:52:57.481Z,18.70
2019-03-26T00:53:57.508Z,17.00
2019-03-26T00:54:57.612Z,15.50
2019-03-26T00:55:57.562Z,14.70
2019-03-26T00:56:57.588Z,17.60
2019-03-26T00:57:57.615Z,18.20
2019-03-26T00:58:57.643Z,15.00
2019-03-26T00:59:57.669Z,15.10
2019-03-26T01:00:57.696Z,17.80
2019-03-26T01:01:57.725Z,16.70
2019-03-26T01:02:57.749Z,15.70
2019-03-26T01:03:57.778Z,17.40
2019-03-26T01:04:57.803Z,21.80
2019-03-26T01:05:57.830Z,16.40
2019-03-26T01:06:57.857Z,17.00
2019-03-26T01:07:57.886Z,20.10
2019-03-26T01:08:57.911Z,21.60
2019-03-26T01:09:58.087Z,20.20
2019-03-26T01:10:57.963Z,19.00
2019-03-26T01:11:57.990Z,18.40
2019-03-26T01:12:58.017Z,18.60
2019-03-26T01:13:58.044Z,23.50
2019-03-26T01:14:58.073Z,17.00
2019-03-26T01:15:58.099Z,19.60
2019-03-26T01:16:58.126Z,18.20
2019-03-26T01:17:58.152Z,14.40
2019-03-26T01:18:58.178Z,18.30
2019-03-26T01:19:58.204Z,17.10
2019-03-26T01:20:58.233Z,19.50
2019-03-26T01:21:58.259Z,14.40
2019-03-26T01:22:58.366Z,18.50
2019-03-26T01:23:58.313Z,14.20
2019-03-26T01:24:58.346Z,13.50
2019-03-26T01:25:58.367Z,15.40
2019-03-26T01:26:58.393Z,14.60
2019-03-26T01:27:58.419Z,12.70
2019-03-26T01:28:58.447Z,11.90
2019-03-26T01:29:58.473Z,13.30
2019-03-26T01:30:58.500Z,13.00
2019-03-26T01:31:58.527Z,22.10
2019-03-26T01:32:58.572Z,30.80
2019-03-26T01:33:58.582Z,27.20
2019-03-26T01:34:58.607Z,28.00
2019-03-26T01:35:58.634Z,23.40
2019-03-26T01:36:58.662Z,20.80
2019-03-26T01:37:58.689Z,19.90
2019-03-26T01:38:58.716Z,23.70
2019-03-26T01:39:58.743Z,25.90
2019-03-26T01:40:58.770Z,16.60
2019-03-26T01:41:58.796Z,20.50
2019-03-26T01:42:58.825Z,20.00
2019-03-26T01:43:58.850Z,23.00
2019-03-26T01:44:58.881Z,17.70
2019-03-26T01:45:58.907Z,16.80
2019-03-26T01:46:58.933Z,45.10
2019-03-26T01:47:58.957Z,49.70
2019-03-26T01:48:58.984Z,39.40
2019-03-26T01:49:59.011Z,31.50
2019-03-26T01:50:59.037Z,32.10
2019-03-26T01:51:59.068Z,32.50
2019-03-26T01:52:59.091Z,31.10
2019-03-26T01:53:59.120Z,27.40
2019-03-26T01:54:59.145Z,25.00
2019-03-26T01:55:59.172Z,22.40
2019-03-26T01:56:59.204Z,28.80
2019-03-26T01:57:59.226Z,18.90
2019-03-26T01:58:59.253Z,16.60
2019-03-26T01:59:59.280Z,16.70
2019-03-26T02:00:59.607Z,19.60
2019-03-26T02:01:59.340Z,15.40
2019-03-26T02:02:59.361Z,21.40
2019-03-26T02:03:59.390Z,16.20
2019-03-26T02:05:00.588Z,21.20
2019-03-26T02:05:59.443Z,20.00
2019-03-26T02:06:59.470Z,18.30
2019-03-26T02:07:59.497Z,17.20
2019-03-26T02:08:59.525Z,21.20
2019-03-26T02:09:59.550Z,23.70
2019-03-26T02:10:59.576Z,18.80
2019-03-26T02:11:59.604Z,17.60
2019-03-26T02:12:59.632Z,17.30
2019-03-26T02:13:59.658Z,15.30
2019-03-26T02:14:59.684Z,18.40
2019-03-26T02:15:59.711Z,14.70
2019-03-26T02:16:59.739Z,15.60
2019-03-26T02:17:59.773Z,17.30
2019-03-26T02:18:59.792Z,11.40
2019-03-26T02:19:59.820Z,18.20
2019-03-26T02:20:59.847Z,12.70
2019-03-26T02:21:59.874Z,12.90
2019-03-26T02:22:59.900Z,11.40
2019-03-26T02:23:59.927Z,10.60
2019-03-26T02:24:59.960Z,11.80
2019-03-26T02:25:59.982Z,11.60
2019-03-26T02:27:00.008Z,13.50
2019-03-26T02:28:00.035Z,12.80
2019-03-26T02:29:00.062Z,13.20
2019-03-26T02:30:00.177Z,9.70
2019-03-26T02:31:00.120Z,13.40
2019-03-26T02:32:00.143Z,13.80
2019-03-26T02:33:00.171Z,14.00
2019-03-26T02:34:00.198Z,15.60
2019-03-26T02:35:16.237Z,13.90
2019-03-26T02:36:00.250Z,11.50
2019-03-26T02:37:00.277Z,11.50
2019-03-26T02:38:00.305Z,12.00
2019-03-26T02:39:00.337Z,12.30
2019-03-26T02:40:00.714Z,11.20
2019-03-26T02:41:00.385Z,12.20
2019-03-26T02:42:00.416Z,14.50
2019-03-26T02:43:00.449Z,12.20
2019-03-26T02:44:00.466Z,11.20
2019-03-26T02:45:00.539Z,12.30
2019-03-26T02:46:00.521Z,13.30
2019-03-26T02:47:00.546Z,9.80
2019-03-26T02:48:00.581Z,9.60
2019-03-26T02:49:00.604Z,11.20
2019-03-26T02:50:00.812Z,14.20
2019-03-26T02:51:00.655Z,10.30
2019-03-26T02:52:00.682Z,11.60
2019-03-26T02:53:00.717Z,11.40
2019-03-26T02:54:00.736Z,10.70
2019-03-26T02:55:00.766Z,15.20
2019-03-26T02:56:00.790Z,11.00
2019-03-26T02:57:00.821Z,10.50
2019-03-26T02:58:00.845Z,11.70
2019-03-26T02:59:00.875Z,13.90
2019-03-26T03:00:00.899Z,13.00
2019-03-26T03:01:00.926Z,11.80
2019-03-26T03:02:00.953Z,11.00
2019-03-26T03:03:00.980Z,16.10
2019-03-26T03:04:01.007Z,16.20
2019-03-26T03:05:01.034Z,13.30
2019-03-26T03:06:01.061Z,12.70
2019-03-26T03:07:01.089Z,10.70
2019-03-26T03:08:01.114Z,9.70
2019-03-26T03:09:01.146Z,13.30
2019-03-26T03:10:01.170Z,14.20
2019-03-26T03:11:01.195Z,11.40
2019-03-26T03:12:01.241Z,13.60
2019-03-26T03:13:01.273Z,11.20
2019-03-26T03:14:01.280Z,13.20
2019-03-26T03:15:01.308Z,10.30
2019-03-26T03:16:01.330Z,16.20
2019-03-26T03:17:01.362Z,12.00
2019-03-26T03:18:01.390Z,10.80
2019-03-26T03:19:01.413Z,14.60
2019-03-26T03:20:01.442Z,14.60
2019-03-26T03:21:01.466Z,17.70
2019-03-26T03:22:01.493Z,17.00
2019-03-26T03:23:01.522Z,10.70
2019-03-26T03:24:01.546Z,15.80
2019-03-26T03:25:01.578Z,10.70
2019-03-26T03:26:01.666Z,12.60
2019-03-26T03:27:01.636Z,13.40
2019-03-26T03:28:01.655Z,12.70
2019-03-26T03:29:01.684Z,14.00
2019-03-26T03:30:01.734Z,11.30
2019-03-26T03:31:01.746Z,10.00
2019-03-26T03:32:01.763Z,13.90
2019-03-26T03:33:01.792Z,17.50
2019-03-26T03:34:01.819Z,14.10
2019-03-26T03:35:01.844Z,13.40
2019-03-26T03:36:01.871Z,12.70
2019-03-26T03:37:01.978Z,13.60
2019-03-26T03:38:01.926Z,11.50
2019-03-26T03:39:01.954Z,16.60
2019-03-26T03:40:01.988Z,13.90
2019-03-26T03:41:02.008Z,12.00
2019-03-26T03:42:02.050Z,10.50
2019-03-26T03:43:02.060Z,12.60
2019-03-26T03:44:02.087Z,9.90
2019-03-26T03:45:02.117Z,10.80
2019-03-26T03:46:02.151Z,12.00
2019-03-26T03:47:02.171Z,17.60
2019-03-26T03:48:02.198Z,10.70
2019-03-26T03:49:02.223Z,10.80
2019-03-26T03:50:02.249Z,13.10
2019-03-26T03:51:02.275Z,15.20
2019-03-26T03:52:02.310Z,13.60
2019-03-26T03:53:02.433Z,10.20
2019-03-26T03:54:02.358Z,12.20
2019-03-26T03:55:02.405Z,12.50
2019-03-26T03:56:02.421Z,14.30
2019-03-26T03:57:02.437Z,13.40
2019-03-26T03:58:02.465Z,11.80
2019-03-26T03:59:02.499Z,12.30
2019-03-26T04:00:02.529Z,15.60
2019-03-26T04:01:02.545Z,12.30
2019-03-26T04:02:02.574Z,11.70
2019-03-26T04:03:02.598Z,11.00
2019-03-26T04:04:02.635Z,14.20
2019-03-26T04:05:02.654Z,16.50
2019-03-26T04:06:09.441Z,14.10
2019-03-26T04:07:02.705Z,12.30
2019-03-26T04:08:02.754Z,13.00
2019-03-26T04:09:02.768Z,11.90
2019-03-26T04:10:02.788Z,13.40
2019-03-26T04:11:02.813Z,14.00
2019-03-26T04:12:02.840Z,13.50
2019-03-26T04:13:02.882Z,18.50
2019-03-26T04:14:02.896Z,12.80
2019-03-26T04:15:02.930Z,13.00
2019-03-26T04:16:02.956Z,9.90
2019-03-26T04:17:02.989Z,14.10
2019-03-26T04:18:03.005Z,11.90
2019-03-26T04:19:03.029Z,13.20
2019-03-26T04:20:03.076Z,15.30
2019-03-26T04:21:03.081Z,14.70
2019-03-26T04:22:03.118Z,14.70
2019-03-26T04:23:03.140Z,15.80
2019-03-26T04:24:03.165Z,13.90
2019-03-26T04:25:03.187Z,15.80
2019-03-26T04:26:03.217Z,13.70
2019-03-26T04:27:03.249Z,17.10
2019-03-26T04:28:03.267Z,14.80
2019-03-26T04:29:03.297Z,15.60
2019-03-26T04:30:03.328Z,13.10
2019-03-26T04:31:03.371Z,15.10
2019-03-26T04:32:03.375Z,16.10
2019-03-26T04:33:03.412Z,13.50
2019-03-26T04:34:03.430Z,12.30
2019-03-26T04:35:03.455Z,15.30
2019-03-26T04:36:03.483Z,12.60
2019-03-26T04:37:03.508Z,17.90
2019-03-26T04:38:03.535Z,17.20
2019-03-26T04:39:03.562Z,14.50
2019-03-26T04:40:03.590Z,16.10
2019-03-26T04:41:03.615Z,13.80
2019-03-26T04:42:03.641Z,14.80
2019-03-26T04:43:03.669Z,14.80
2019-03-26T04:44:03.698Z,13.30
2019-03-26T04:45:03.721Z,18.50
2019-03-26T04:46:03.753Z,15.50
2019-03-26T04:47:03.776Z,14.90
2019-03-26T04:48:03.801Z,12.10
2019-03-26T04:49:03.833Z,15.10
2019-03-26T04:50:03.856Z,17.70
2019-03-26T04:51:03.884Z,14.20
2019-03-26T04:52:03.910Z,11.40
2019-03-26T04:53:03.938Z,16.40
2019-03-26T04:54:03.963Z,18.40
2019-03-26T04:55:03.989Z,16.60
2019-03-26T04:56:04.016Z,17.20
2019-03-26T04:57:04.042Z,15.20
2019-03-26T04:58:04.070Z,18.10
2019-03-26T04:59:04.097Z,20.60
2019-03-26T05:00:04.125Z,15.10
2019-03-26T05:01:04.150Z,19.90
2019-03-26T05:02:04.181Z,17.50
2019-03-26T05:03:04.212Z,19.70
2019-03-26T05:04:04.231Z,19.70
2019-03-26T05:05:04.258Z,16.50
2019-03-26T05:06:04.290Z,19.20
2019-03-26T05:07:04.315Z,15.60
2019-03-26T05:08:04.339Z,15.10
2019-03-26T05:09:04.367Z,18.70
2019-03-26T05:10:04.416Z,17.90
2019-03-26T05:11:04.418Z,17.60
2019-03-26T05:12:04.446Z,17.40
2019-03-26T05:13:04.478Z,14.80
2019-03-26T05:14:04.500Z,19.50
2019-03-26T05:15:04.527Z,18.00
2019-03-26T05:16:04.553Z,17.50
2019-03-26T05:17:04.581Z,20.30
2019-03-26T05:18:04.608Z,20.70
2019-03-26T05:19:04.634Z,21.10
2019-03-26T05:20:04.660Z,18.50
2019-03-26T05:21:04.688Z,23.90
2019-03-26T05:22:04.715Z,24.20
2019-03-26T05:23:04.741Z,22.00
2019-03-26T05:24:04.769Z,23.50
2019-03-26T05:25:04.799Z,21.00
2019-03-26T05:26:04.822Z,21.70
2019-03-26T05:27:04.849Z,21.50
2019-03-26T05:28:04.875Z,20.40
2019-03-26T05:29:04.908Z,24.30
2019-03-26T05:30:04.931Z,20.90
2019-03-26T05:31:04.955Z,23.20
2019-03-26T05:32:04.983Z,24.20
2019-03-26T05:33:05.011Z,32.10
2019-03-26T05:34:05.038Z,26.50
2019-03-26T05:35:05.065Z,29.50
2019-03-26T05:36:05.091Z,28.40
2019-03-26T05:37:05.128Z,30.60
2019-03-26T05:38:05.145Z,34.90
2019-03-26T05:39:05.173Z,26.70
2019-03-26T05:40:05.199Z,32.50
2019-03-26T05:41:05.227Z,28.80
2019-03-26T05:42:05.269Z,28.30
2019-03-26T05:43:05.282Z,23.70
2019-03-26T05:44:05.349Z,28.60
2019-03-26T05:45:05.333Z,23.30
2019-03-26T05:46:05.361Z,28.10
2019-03-26T05:47:05.389Z,30.10
2019-03-26T05:48:05.418Z,27.30
2019-03-26T05:49:05.442Z,35.00
2019-03-26T05:50:05.470Z,34.80
2019-03-26T05:51:05.496Z,29.60
2019-03-26T05:52:05.522Z,37.20
2019-03-26T05:53:05.552Z,41.00
2019-03-26T05:54:05.580Z,74.90
2019-03-26T05:55:05.604Z,89.80
2019-03-26T05:56:05.637Z,45.00
2019-03-26T05:57:05.670Z,29.30
2019-03-26T05:58:05.687Z,54.00
2019-03-26T05:59:05.712Z,68.00
2019-03-26T06:00:05.742Z,40.10
2019-03-26T06:01:05.766Z,25.30
2019-03-26T06:02:14.311Z,33.20
2019-03-26T06:03:05.820Z,34.00
2019-03-26T06:04:05.847Z,29.60
2019-03-26T06:05:05.959Z,34.90
2019-03-26T06:06:05.903Z,27.10
2019-03-26T06:07:05.929Z,26.70
2019-03-26T06:08:05.957Z,27.40
2019-03-26T06:09:05.986Z,32.10
2019-03-26T06:10:06.017Z,27.50
2019-03-26T06:11:06.038Z,25.00
2019-03-26T06:12:06.064Z,28.60
2019-03-26T06:13:06.096Z,29.20
2019-03-26T06:14:06.119Z,27.40
2019-03-26T06:15:06.146Z,32.40
2019-03-26T06:16:06.177Z,31.80
2019-03-26T06:17:06.200Z,23.10
2019-03-26T06:18:07.931Z,29.30
2019-03-26T06:19:06.252Z,24.80
2019-03-26T06:20:06.355Z,31.00
2019-03-26T06:21:06.311Z,25.60
2019-03-26T06:22:06.338Z,29.80
2019-03-26T06:23:06.363Z,26.50
2019-03-26T06:24:06.391Z,26.10
2019-03-26T06:25:06.419Z,27.80
2019-03-26T06:26:06.447Z,30.90
2019-03-26T06:27:06.472Z,28.10
2019-03-26T06:28:06.499Z,28.40
2019-03-26T06:29:06.530Z,26.10
2019-03-26T06:30:06.556Z,28.50
2019-03-26T06:31:06.581Z,23.90
2019-03-26T06:32:06.609Z,21.50
2019-03-26T06:33:06.635Z,29.80
2019-03-26T06:34:06.664Z,24.50
2019-03-26T06:35:06.689Z,26.40
2019-03-26T06:36:06.716Z,28.20
2019-03-26T06:37:17.356Z,27.40
2019-03-26T06:38:06.771Z,29.40
2019-03-26T06:39:06.798Z,32.20
2019-03-26T06:40:06.828Z,25.90
2019-03-26T06:41:06.853Z,29.00
2019-03-26T06:42:06.911Z,26.30
2019-03-26T06:43:06.911Z,27.10
2019-03-26T06:44:06.938Z,27.70
2019-03-26T06:45:06.963Z,31.60
2019-03-26T06:46:06.991Z,26.50
2019-03-26T06:47:07.018Z,26.10
2019-03-26T06:48:07.045Z,30.70
2019-03-26T06:49:07.073Z,26.50
2019-03-26T06:50:07.101Z,30.90
2019-03-26T06:51:07.127Z,25.20
2019-03-26T06:52:07.156Z,29.10
2019-03-26T06:53:07.186Z,27.60
2019-03-26T06:54:07.213Z,23.40
2019-03-26T06:55:07.245Z,17.00
2019-03-26T06:56:07.267Z,25.10
2019-03-26T06:57:07.295Z,28.80
2019-03-26T06:58:07.323Z,21.30
2019-03-26T06:59:07.349Z,23.80
2019-03-26T07:00:07.529Z,24.30
2019-03-26T07:01:07.406Z,23.90
2019-03-26T07:02:07.434Z,21.00
2019-03-26T07:03:07.462Z,26.40
2019-03-26T07:04:07.489Z,20.80
2019-03-26T07:05:07.520Z,21.10
2019-03-26T07:06:07.546Z,18.20
2019-03-26T07:07:07.578Z,23.10
2019-03-26T07:08:07.602Z,18.90
2019-03-26T07:09:07.630Z,20.00
2019-03-26T07:10:07.659Z,26.00
2019-03-26T07:11:07.686Z,22.30
2019-03-26T07:12:07.991Z,24.50
2019-03-26T07:13:07.744Z,23.10
2019-03-26T07:14:07.772Z,25.90
2019-03-26T07:15:07.803Z,23.70
2019-03-26T07:16:07.828Z,24.30
2019-03-26T07:17:07.860Z,23.70
2019-03-26T07:18:07.886Z,17.60
2019-03-26T07:19:07.914Z,23.90
2019-03-26T07:20:07.945Z,16.80
2019-03-26T07:21:07.972Z,14.60
2019-03-26T07:22:07.999Z,20.80
2019-03-26T07:23:08.536Z,22.80
2019-03-26T07:24:08.054Z,20.40
2019-03-26T07:25:08.085Z,22.70
2019-03-26T07:26:08.113Z,16.80
2019-03-26T07:27:08.142Z,20.80
2019-03-26T07:28:08.168Z,20.50
2019-03-26T07:29:08.208Z,21.50
2019-03-26T07:30:08.227Z,21.40
2019-03-26T07:31:08.256Z,22.70
2019-03-26T07:32:08.284Z,22.30
2019-03-26T07:33:08.315Z,23.70
2019-03-26T07:34:08.342Z,26.80
2019-03-26T07:35:08.372Z,23.30
2019-03-26T07:36:08.397Z,21.00
2019-03-26T07:37:08.427Z,25.70
2019-03-26T07:38:08.458Z,19.90
2019-03-26T07:39:08.483Z,22.20
2019-03-26T07:40:08.511Z,19.30
2019-03-26T07:41:08.540Z,22.70
2019-03-26T07:42:08.570Z,19.10
2019-03-26T07:43:08.599Z,24.30
2019-03-26T07:44:08.625Z,24.70
2019-03-26T07:45:08.660Z,21.30
2019-03-26T07:46:08.683Z,16.90
2019-03-26T07:47:08.715Z,24.60
2019-03-26T07:48:08.740Z,23.50
2019-03-26T07:49:08.769Z,23.30
2019-03-26T07:50:08.801Z,17.30
2019-03-26T07:51:08.827Z,21.40
2019-03-26T07:52:08.854Z,25.80
2019-03-26T07:53:08.885Z,21.40
2019-03-26T07:54:08.914Z,17.30
2019-03-26T07:55:08.993Z,17.90
2019-03-26T07:56:08.972Z,20.10
2019-03-26T07:57:09.000Z,25.60
2019-03-26T07:58:09.029Z,24.50
2019-03-26T07:59:09.058Z,22.40
2019-03-26T08:00:09.087Z,21.30
2019-03-26T08:01:09.116Z,20.60
2019-03-26T08:02:09.145Z,24.00
2019-03-26T08:03:09.174Z,18.40
2019-03-26T08:04:12.356Z,20.60
2019-03-26T08:05:09.235Z,19.80
2019-03-26T08:06:09.262Z,20.90
2019-03-26T08:07:09.291Z,23.80
2019-03-26T08:08:09.372Z,18.80
2019-03-26T08:09:09.374Z,23.00
2019-03-26T08:10:09.385Z,19.00
2019-03-26T08:11:09.433Z,22.50
2019-03-26T08:12:09.465Z,22.30
2019-03-26T08:13:09.467Z,16.10
2019-03-26T08:14:09.622Z,20.00
2019-03-26T08:15:09.560Z,16.10
2019-03-26T08:16:09.565Z,18.90
2019-03-26T08:17:09.588Z,19.80
2019-03-26T08:18:09.617Z,21.60
2019-03-26T08:19:09.651Z,22.70
2019-03-26T08:20:12.470Z,18.90
2019-03-26T08:21:09.707Z,22.30
2019-03-26T08:22:09.737Z,19.30
2019-03-26T08:23:09.766Z,14.80
2019-03-26T08:24:09.795Z,25.50
2019-03-26T08:25:09.824Z,21.90
2019-03-26T08:26:09.855Z,17.70
2019-03-26T08:27:09.884Z,21.70
2019-03-26T08:28:09.914Z,19.20
2019-03-26T08:29:09.945Z,19.20
2019-03-26T08:30:09.978Z,16.90
2019-03-26T08:31:10.004Z,21.40
2019-03-26T08:32:10.036Z,19.40
2019-03-26T08:33:10.065Z,18.80
2019-03-26T08:34:10.095Z,20.30
2019-03-26T08:35:10.128Z,21.20
2019-03-26T08:36:10.154Z,17.80
2019-03-26T08:37:10.191Z,19.60
2019-03-26T08:38:12.878Z,21.40
2019-03-26T08:39:10.244Z,15.30
2019-03-26T08:40:10.284Z,17.90
2019-03-26T08:41:10.305Z,17.40
2019-03-26T08:42:10.335Z,20.40
2019-03-26T08:43:10.366Z,16.60
2019-03-26T08:44:10.394Z,17.50
2019-03-26T08:45:10.424Z,22.80
2019-03-26T08:46:10.455Z,21.00
2019-03-26T08:47:10.486Z,17.20
2019-03-26T08:48:10.515Z,16.10
2019-03-26T08:49:10.545Z,19.60
2019-03-26T08:50:10.583Z,22.10
2019-03-26T08:51:10.604Z,23.50
2019-03-26T08:52:10.638Z,21.80
2019-03-26T08:53:10.666Z,20.60
2019-03-26T08:54:10.696Z,18.00
2019-03-26T08:55:10.726Z,22.10
2019-03-26T08:56:10.756Z,19.20
2019-03-26T08:57:10.785Z,18.30
2019-03-26T08:58:10.818Z,19.30
2019-03-26T08:59:10.848Z,17.00
2019-03-26T09:00:10.877Z,20.30
2019-03-26T09:01:10.908Z,22.60
2019-03-26T09:02:10.937Z,24.10
2019-03-26T09:03:10.967Z,17.80
2019-03-26T09:04:10.998Z,18.10
2019-03-26T09:05:11.028Z,18.40
2019-03-26T09:06:11.058Z,18.50
2019-03-26T09:07:11.211Z,17.40
2019-03-26T09:08:11.116Z,20.50
2019-03-26T09:09:11.147Z,20.00
2019-03-26T09:10:11.215Z,21.00
2019-03-26T09:11:11.207Z,16.30
2019-03-26T09:12:11.237Z,16.50
2019-03-26T09:13:11.270Z,16.70
2019-03-26T09:14:11.302Z,20.00
2019-03-26T09:15:14.196Z,20.70
2019-03-26T09:16:11.359Z,15.20
2019-03-26T09:17:11.396Z,15.80
2019-03-26T09:18:11.421Z,19.80
2019-03-26T09:19:11.450Z,20.80
2019-03-26T09:20:11.484Z,19.10
2019-03-26T09:21:11.514Z,15.70
2019-03-26T09:22:11.544Z,18.00
2019-03-26T09:23:12.474Z,18.70
2019-03-26T09:24:11.605Z,16.70
2019-03-26T09:25:11.634Z,18.80
2019-03-26T09:26:11.664Z,13.70
2019-03-26T09:27:11.696Z,14.80
2019-03-26T09:28:11.725Z,14.40
2019-03-26T09:29:11.756Z,14.10
2019-03-26T09:30:11.787Z,12.80
2019-03-26T09:31:11.816Z,12.70
2019-03-26T09:32:11.853Z,13.30
2019-03-26T09:33:11.878Z,18.30
2019-03-26T09:34:11.910Z,15.30
2019-03-26T09:35:11.941Z,13.10
2019-03-26T09:36:11.971Z,12.20
2019-03-26T09:37:12.000Z,11.70
2019-03-26T09:38:12.032Z,11.30
2019-03-26T09:39:12.063Z,12.20
2019-03-26T09:40:12.096Z,14.20
2019-03-26T09:41:12.127Z,14.00
2019-03-26T09:42:12.156Z,10.90
2019-03-26T09:43:12.187Z,15.60
2019-03-26T09:44:12.218Z,11.10
2019-03-26T09:45:12.249Z,10.60
2019-03-26T09:46:12.333Z,12.20
2019-03-26T09:47:16.521Z,12.80
2019-03-26T09:48:12.344Z,10.10
2019-03-26T09:49:12.375Z,11.20
2019-03-26T09:50:12.406Z,12.10
2019-03-26T09:51:12.438Z,16.40
2019-03-26T09:52:12.468Z,12.90
2019-03-26T09:53:12.500Z,12.50
2019-03-26T09:54:12.533Z,13.20
2019-03-26T09:57:05.190Z,13.10
2019-03-26T09:58:05.200Z,10.90
2019-03-26T09:59:05.234Z,12.00
2019-03-26T10:00:05.265Z,16.70
2019-03-26T10:01:05.305Z,10.10
2019-03-26T10:02:05.334Z,12.70
2019-03-26T10:03:05.363Z,10.30
2019-03-26T10:04:05.825Z,11.20
2019-03-26T10:05:05.430Z,9.80
2019-03-26T10:06:05.463Z,10.90
2019-03-26T10:07:05.496Z,11.40
2019-03-26T10:08:05.530Z,13.60
2019-03-26T10:09:05.562Z,11.60
2019-03-26T10:10:06.532Z,14.50
2019-03-26T10:11:05.628Z,11.80
2019-03-26T10:12:05.662Z,9.60
2019-03-26T10:13:05.696Z,9.00
2019-03-26T10:14:05.731Z,9.60
2019-03-26T10:15:05.766Z,9.20
2019-03-26T10:16:05.803Z,12.30
2019-03-26T10:17:05.837Z,8.80
2019-03-26T10:19:05.911Z,10.00
2019-03-26T10:20:05.950Z,8.60
2019-03-26T10:21:06.015Z,10.00
2019-03-26T10:22:06.859Z,8.80
2019-03-26T10:23:09.427Z,13.40
2019-03-26T10:25:06.356Z,12.90
2019-03-26T10:26:06.169Z,8.90
2019-03-26T10:27:06.410Z,11.70
2019-03-26T10:28:06.262Z,11.20
2019-03-26T10:29:19.016Z,10.70
2019-03-26T10:30:06.314Z,10.00
2019-03-26T10:31:06.351Z,14.00
2019-03-26T10:32:06.387Z,11.60
2019-03-26T10:33:06.422Z,8.60
2019-03-26T10:34:06.458Z,13.20
2019-03-26T10:35:06.496Z,9.40
2019-03-26T10:36:06.527Z,9.20
2019-03-26T10:37:06.563Z,15.10
2019-03-26T10:38:06.597Z,11.30
2019-03-26T10:39:06.631Z,9.90
2019-03-26T10:40:06.665Z,13.40
2019-03-26T10:41:06.701Z,14.10
2019-03-26T10:42:07.049Z,13.70
2019-03-26T10:43:06.768Z,12.60
2019-03-26T10:44:06.821Z,7.90
2019-03-26T10:45:06.840Z,9.00
2019-03-26T10:46:06.867Z,9.80
2019-03-26T10:47:06.901Z,7.90
2019-03-26T10:48:06.934Z,10.90
2019-03-26T10:49:06.966Z,8.90
2019-03-26T10:50:07.004Z,10.00
2019-03-26T10:51:07.035Z,11.10
2019-03-26T10:52:07.067Z,15.60
2019-03-26T10:53:07.098Z,9.80
2019-03-26T10:54:07.130Z,7.10
2019-03-26T10:55:07.163Z,8.30
2019-03-26T10:56:07.196Z,9.20
2019-03-26T10:57:07.229Z,6.40
2019-03-26T10:58:07.261Z,8.20
2019-03-26T10:59:07.295Z,5.40
2019-03-26T11:00:07.323Z,7.00
2019-03-26T11:01:07.357Z,7.90
2019-03-26T11:02:07.392Z,5.60
2019-03-26T11:03:07.423Z,8.40
2019-03-26T11:04:07.916Z,6.10
2019-03-26T11:05:07.486Z,6.60
2019-03-26T11:06:07.518Z,6.10
2019-03-26T11:07:07.550Z,6.20
2019-03-26T11:08:07.581Z,6.80
2019-03-26T11:09:20.104Z,7.90
2019-03-26T11:10:07.647Z,8.50
2019-03-26T11:11:07.679Z,5.40
2019-03-26T11:12:07.713Z,9.90
2019-03-26T11:13:07.745Z,4.60
2019-03-26T11:14:07.781Z,6.50
2019-03-26T11:15:07.814Z,7.60
2019-03-26T11:16:07.843Z,6.10
2019-03-26T11:17:07.878Z,8.30
2019-03-26T11:18:07.909Z,7.60
2019-03-26T11:19:07.943Z,10.60
2019-03-26T11:20:07.986Z,11.70
2019-03-26T11:21:08.005Z,9.70
2019-03-26T11:22:08.039Z,7.20
2019-03-26T11:23:08.071Z,5.30
2019-03-26T11:24:08.104Z,4.70
2019-03-26T11:25:08.139Z,6.60
2019-03-26T11:26:08.173Z,4.70
2019-03-26T11:27:08.205Z,5.90
2019-03-26T11:28:08.239Z,6.80
2019-03-26T11:29:08.272Z,5.70
2019-03-26T11:30:08.307Z,5.20
2019-03-26T11:31:08.339Z,6.30
2019-03-26T11:32:08.375Z,7.90
2019-03-26T11:33:08.411Z,8.10
2019-03-26T11:34:08.442Z,9.40
2019-03-26T11:35:08.527Z,5.50
2019-03-26T11:36:08.510Z,5.60
2019-03-26T11:37:08.544Z,4.90
2019-03-26T11:38:08.579Z,3.60
2019-03-26T11:39:08.615Z,6.10
2019-03-26T11:40:08.648Z,4.30
2019-03-26T11:41:08.691Z,7.00
2019-03-26T11:42:08.720Z,4.20
2019-03-26T11:43:08.760Z,4.30
2019-03-26T11:44:08.791Z,4.50
2019-03-26T11:45:08.826Z,8.00
2019-03-26T11:46:08.863Z,6.10
2019-03-26T11:47:08.899Z,6.20
2019-03-26T11:48:08.961Z,9.10
2019-03-26T11:49:08.989Z,5.50
2019-03-26T11:50:09.030Z,5.00
2019-03-26T11:51:09.041Z,5.20
2019-03-26T11:53:09.111Z,4.80
2019-03-26T11:54:09.145Z,8.30
2019-03-26T11:55:09.192Z,6.20
2019-03-26T11:56:09.216Z,5.50
2019-03-26T11:57:09.251Z,6.00
2019-03-26T11:58:09.286Z,5.30
2019-03-26T11:59:09.320Z,5.60
2019-03-26T12:00:09.354Z,6.70
2019-03-26T12:01:09.389Z,3.60
2019-03-26T12:02:09.442Z,6.80
2019-03-26T12:03:09.459Z,6.40
2019-03-26T12:04:09.498Z,4.50
2019-03-26T12:05:10.744Z,5.20
2019-03-26T12:06:12.188Z,4.60
2019-03-26T12:07:09.829Z,3.40
2019-03-26T12:08:09.662Z,3.00
2019-03-26T12:09:10.006Z,4.40
2019-03-26T12:10:09.715Z,3.50
2019-03-26T12:11:09.755Z,2.90
2019-03-26T12:12:09.818Z,3.30
2019-03-26T12:13:09.860Z,3.00
2019-03-26T12:14:09.875Z,3.80
2019-03-26T12:15:09.917Z,3.40
2019-03-26T12:16:09.957Z,3.60
2019-03-26T12:17:10.000Z,3.10
2019-03-26T12:18:10.044Z,3.90
2019-03-26T12:19:10.084Z,2.80
2019-03-26T12:20:10.129Z,2.80
2019-03-26T12:21:10.170Z,2.80
2019-03-26T12:22:10.236Z,3.30
2019-03-26T12:24:22.921Z,5.00
2019-03-26T12:25:26.190Z,3.20
2019-03-26T12:26:26.033Z,3.20
2019-03-26T12:27:27.063Z,3.80
2019-03-26T12:28:23.070Z,2.70
2019-03-26T12:29:23.444Z,3.90
2019-03-26T12:30:25.780Z,3.20
2019-03-26T12:31:23.404Z,3.10
2019-03-26T12:32:23.247Z,3.40
2019-03-26T12:33:23.290Z,3.40
2019-03-26T12:34:23.333Z,4.90
2019-03-26T12:35:23.381Z,3.50
2019-03-26T12:36:23.444Z,4.20
2019-03-26T12:37:23.463Z,3.60
2019-03-26T12:38:23.506Z,3.70
2019-03-26T12:39:23.549Z,5.10
2019-03-26T12:40:23.585Z,7.30
2019-03-26T12:41:23.627Z,3.60
2019-03-26T12:42:24.879Z,3.90
2019-03-26T12:43:23.909Z,3.90
2019-03-26T12:44:23.747Z,3.70
2019-03-26T12:45:24.217Z,5.00
2019-03-26T12:46:23.824Z,5.10
2019-03-26T12:47:23.887Z,4.20
2019-03-26T12:48:23.903Z,8.70
2019-03-26T12:49:23.940Z,7.20
2019-03-26T12:51:24.018Z,3.20
2019-03-26T12:53:24.808Z,4.30
2019-03-26T12:55:24.168Z,4.80
2019-03-26T12:56:24.206Z,5.20
2019-03-26T12:57:24.243Z,3.40
2019-03-26T12:58:31.772Z,4.70
2019-03-26T12:59:26.681Z,4.10
2019-03-26T13:00:24.354Z,4.10
2019-03-26T13:01:24.389Z,3.50
2019-03-26T13:02:24.426Z,2.50
2019-03-26T13:03:24.461Z,4.90
2019-03-26T13:04:24.499Z,2.80
2019-03-26T13:05:24.537Z,5.40
2019-03-26T13:06:24.570Z,2.50
2019-03-26T13:07:24.611Z,3.50
2019-03-26T13:08:24.650Z,3.00